Time;durP1;ratioP1;P1;durP2;ratioP2;P2;SDS_P1;SDS_P2;PMS_P1;PMS_P2;Temp;Humidity;BMP_temperature;BMP_pressure;BME280_temperature;BME280_humidity;BME280_pressure;Samples;Min_cycle;Max_cycle;Signal;HPM_P1;HPM_P2
2021/04/30 00:00:47;;;;;;;25.70;15.52;;;;;;;;;;5056849;28;20414;-81
2021/04/30 00:03:13;;;;;;;21.77;15.30;;;;;;;;;;5055739;28;20073;-81
2021/04/30 00:05:39;;;;;;;24.88;15.38;;;;;;;;;;5056991;28;20060;-81
2021/04/30 00:08:05;;;;;;;20.73;14.70;;;;;;;;;;5057223;28;20025;-81
2021/04/30 00:10:31;;;;;;;22.35;15.63;;;;;;;;;;5057036;28;20036;-80
2021/04/30 00:12:58;;;;;;;22.58;15.20;;;;;;;;;;5056786;28;20427;-81
2021/04/30 00:15:24;;;;;;;25.58;15.32;;;;;;;;;;5056807;28;20049;-81
2021/04/30 00:17:50;;;;;;;22.42;14.88;;;;;;;;;;5055936;28;20025;-81
2021/04/30 00:20:17;;;;;;;23.63;15.48;;;;;;;;;;5056919;28;20354;-81
2021/04/30 00:22:43;;;;;;;22.67;15.32;;;;;;;;;;5055999;28;20095;-81
2021/04/30 00:25:10;;;;;;;19.92;14.90;;;;;;;;;;5057098;28;20025;-81
2021/04/30 00:27:36;;;;;;;23.13;15.93;;;;;;;;;;5056042;28;20040;-81
2021/04/30 00:30:03;;;;;;;23.63;15.85;;;;;;;;;;5056650;28;20297;-80
2021/04/30 00:32:29;;;;;;;22.35;15.88;;;;;;;;;;5056879;28;20052;-81
2021/04/30 00:34:55;;;;;;;19.67;14.65;;;;;;;;;;5056655;28;20031;-81
2021/04/30 00:37:21;;;;;;;26.48;15.75;;;;;;;;;;5056965;28;20041;-81
2021/04/30 00:39:47;;;;;;;23.60;15.40;;;;;;;;;;5057353;28;20029;-81
2021/04/30 00:42:25;;;;;;;26.02;17.48;;;;;;;;;;5060566;28;20039;-82
2021/04/30 00:44:51;;;;;;;21.10;16.02;;;;;;;;;;5061018;28;20324;-82
2021/04/30 00:47:25;;;;;;;23.60;15.73;;;;;;;;;;5061005;28;20082;-81
2021/04/30 00:49:51;;;;;;;21.60;15.38;;;;;;;;;;5060814;28;20029;-80
2021/04/30 00:52:17;;;;;;;21.13;15.75;;;;;;;;;;5059814;28;20049;-80
2021/04/30 00:54:43;;;;;;;23.38;15.85;;;;;;;;;;5059475;28;20487;-80
2021/04/30 00:57:11;;;;;;;23.08;16.40;;;;;;;;;;5060725;28;20021;-80
2021/04/30 00:59:37;;;;;;;25.38;16.40;;;;;;;;;;5060229;28;20037;-81
2021/04/30 01:02:03;;;;;;;22.73;15.88;;;;;;;;;;5060322;28;20056;-81
2021/04/30 01:04:29;;;;;;;23.13;16.55;;;;;;;;;;5059398;28;20423;-81
2021/04/30 01:06:55;;;;;;;24.80;15.95;;;;;;;;;;5060467;28;20040;-81
2021/04/30 01:09:21;;;;;;;25.67;16.63;;;;;;;;;;5060263;28;20062;-81
2021/04/30 01:11:47;;;;;;;24.27;16.67;;;;;;;;;;5059048;28;20033;-80
2021/04/30 01:14:13;;;;;;;22.60;16.08;;;;;;;;;;5060160;28;20048;-81
2021/04/30 01:16:39;;;;;;;24.15;15.73;;;;;;;;;;5060121;28;20025;-81
2021/04/30 01:19:05;;;;;;;26.80;17.10;;;;;;;;;;5059993;28;20112;-81
2021/04/30 01:21:31;;;;;;;26.30;17.65;;;;;;;;;;5059874;28;20477;-81
2021/04/30 01:23:57;;;;;;;25.15;16.83;;;;;;;;;;5059983;28;20021;-81
2021/04/30 01:26:23;;;;;;;22.40;16.60;;;;;;;;;;5059936;28;20041;-81
2021/04/30 01:28:49;;;;;;;21.50;16.17;;;;;;;;;;5058885;28;20065;-80
2021/04/30 01:31:17;;;;;;;24.90;16.70;;;;;;;;;;5059842;28;20041;-80
2021/04/30 01:33:43;;;;;;;26.83;17.05;;;;;;;;;;5059737;28;20021;-81
2021/04/30 01:36:10;;;;;;;23.02;16.48;;;;;;;;;;5059790;28;20411;-81
2021/04/30 01:38:36;;;;;;;22.17;16.10;;;;;;;;;;5059679;28;20025;-81
2021/04/30 01:41:03;;;;;;;23.48;16.90;;;;;;;;;;5059764;28;20044;-82
2021/04/30 01:43:29;;;;;;;24.25;17.02;;;;;;;;;;5059542;28;20020;-82
2021/04/30 01:45:59;;;;;;;26.05;15.90;;;;;;;;;;5059614;28;20017;-82
2021/04/30 01:48:28;;;;;;;21.20;16.25;;;;;;;;;;5059354;28;20096;-81
2021/04/30 01:50:56;;;;;;;22.35;16.08;;;;;;;;;;5059337;28;20060;-81
2021/04/30 01:53:31;;;;;;;26.25;16.92;;;;;;;;;;5057583;28;20025;-81
2021/04/30 01:55:57;;;;;;;27.35;17.20;;;;;;;;;;5059414;28;20079;-82
2021/04/30 01:58:23;;;;;;;29.05;16.80;;;;;;;;;;5059243;28;20029;-82
2021/04/30 02:00:50;;;;;;;22.77;16.60;;;;;;;;;;5059192;28;20029;-82
2021/04/30 02:03:16;;;;;;;23.23;16.52;;;;;;;;;;5059179;28;20087;-81
2021/04/30 02:05:43;;;;;;;23.92;15.77;;;;;;;;;;5059089;28;20025;-81
2021/04/30 02:08:10;;;;;;;25.20;16.63;;;;;;;;;;5058916;28;20024;-81
2021/04/30 02:10:36;;;;;;;26.00;16.75;;;;;;;;;;5059091;28;20017;-82
2021/04/30 02:13:03;;;;;;;28.30;17.55;;;;;;;;;;5059053;28;20029;-81
2021/04/30 02:15:31;;;;;;;22.42;16.98;;;;;;;;;;5058830;28;20025;-81
2021/04/30 02:17:57;;;;;;;27.50;16.75;;;;;;;;;;5058882;28;20423;-81
2021/04/30 02:20:24;;;;;;;24.27;16.42;;;;;;;;;;5057900;28;20025;-81
2021/04/30 02:22:50;;;;;;;24.42;16.10;;;;;;;;;;5059040;28;20409;-81
2021/04/30 02:25:18;;;;;;;25.08;17.23;;;;;;;;;;5058720;28;20021;-81
2021/04/30 02:27:44;;;;;;;23.15;17.15;;;;;;;;;;5058786;28;20095;-81
2021/04/30 02:30:12;;;;;;;29.98;18.17;;;;;;;;;;5058429;28;20025;-81
2021/04/30 02:32:38;;;;;;;23.55;16.30;;;;;;;;;;5058600;28;20035;-82
2021/04/30 02:35:09;;;;;;;24.80;17.23;;;;;;;;;;5058500;28;20036;-81
2021/04/30 02:37:35;;;;;;;27.75;17.00;;;;;;;;;;5058570;28;20033;-82
2021/04/30 02:40:01;;;;;;;20.67;16.00;;;;;;;;;;5058591;28;20467;-81
2021/04/30 02:42:27;;;;;;;24.48;16.45;;;;;;;;;;5058361;28;20025;-81
2021/04/30 02:44:53;;;;;;;24.35;17.15;;;;;;;;;;5058352;28;20017;-81
2021/04/30 02:47:28;;;;;;;30.30;20.30;;;;;;;;;;5058462;28;20063;-81
2021/04/30 02:49:54;;;;;;;34.45;23.88;;;;;;;;;;5058456;28;20029;-81
2021/04/30 02:52:20;;;;;;;31.73;21.27;;;;;;;;;;5057248;28;20021;-81
2021/04/30 02:54:46;;;;;;;28.55;17.95;;;;;;;;;;5058334;28;20029;-81
2021/04/30 02:57:13;;;;;;;28.55;18.35;;;;;;;;;;5058229;28;20100;-81
2021/04/30 02:59:59;;;;;;;26.30;16.90;;;;;;;;;;5057893;28;20074;-81
2021/04/30 03:02:25;;;;;;;23.88;17.13;;;;;;;;;;5057759;28;20070;-82
2021/04/30 03:04:51;;;;;;;25.98;16.33;;;;;;;;;;5057973;28;20332;-81
2021/04/30 03:07:17;;;;;;;25.73;17.50;;;;;;;;;;5058072;28;20032;-81
2021/04/30 03:09:43;;;;;;;23.45;17.17;;;;;;;;;;5057649;28;20024;-81
2021/04/30 03:12:09;;;;;;;23.75;17.08;;;;;;;;;;5057910;28;20115;-81
2021/04/30 03:14:35;;;;;;;25.80;16.58;;;;;;;;;;5057625;28;20025;-81
2021/04/30 03:17:01;;;;;;;23.98;17.42;;;;;;;;;;5057032;28;20127;-81
2021/04/30 03:19:27;;;;;;;27.80;17.67;;;;;;;;;;5058083;28;20025;-81
2021/04/30 03:21:53;;;;;;;25.70;17.27;;;;;;;;;;5056545;28;20304;-81
2021/04/30 03:24:19;;;;;;;21.88;16.48;;;;;;;;;;5057772;28;20013;-81
2021/04/30 03:26:46;;;;;;;26.42;17.40;;;;;;;;;;5056553;28;20092;-81
2021/04/30 03:29:12;;;;;;;26.52;16.75;;;;;;;;;;5056631;28;20072;-81
2021/04/30 03:31:38;;;;;;;24.05;17.60;;;;;;;;;;5056518;28;20029;-81
2021/04/30 03:34:04;;;;;;;27.83;17.17;;;;;;;;;;5057543;28;20028;-81
2021/04/30 03:36:30;;;;;;;23.95;16.77;;;;;;;;;;5057896;28;20039;-82
2021/04/30 03:38:59;;;;;;;27.50;17.92;;;;;;;;;;5057416;28;20029;-81
2021/04/30 03:41:25;;;;;;;24.38;17.77;;;;;;;;;;5057610;28;20028;-81
2021/04/30 03:43:52;;;;;;;25.67;17.42;;;;;;;;;;5057360;28;20104;-81
2021/04/30 03:46:18;;;;;;;25.48;17.15;;;;;;;;;;5057399;28;20088;-81
2021/04/30 03:48:44;;;;;;;26.88;17.55;;;;;;;;;;5057288;28;20063;-81
2021/04/30 03:51:10;;;;;;;29.63;18.67;;;;;;;;;;5057497;28;20080;-81
2021/04/30 03:53:36;;;;;;;30.52;18.23;;;;;;;;;;5057098;28;20028;-81
2021/04/30 03:56:02;;;;;;;26.65;17.73;;;;;;;;;;5057361;28;20027;-81
2021/04/30 03:58:28;;;;;;;27.80;19.33;;;;;;;;;;5056024;28;20025;-81
2021/04/30 04:00:54;;;;;;;28.02;17.65;;;;;;;;;;5057532;28;20020;-82
2021/04/30 04:03:20;;;;;;;21.73;16.55;;;;;;;;;;5057204;28;20110;-82
2021/04/30 04:05:46;;;;;;;26.30;16.70;;;;;;;;;;5057458;28;20100;-82
2021/04/30 04:08:12;;;;;;;38.90;27.60;;;;;;;;;;5057085;28;20025;-82
2021/04/30 04:10:39;;;;;;;29.63;20.63;;;;;;;;;;5057220;28;20021;-82
2021/04/30 04:13:21;;;;;;;26.08;17.75;;;;;;;;;;5057273;28;20025;-82
2021/04/30 04:15:47;;;;;;;;;;;;;;;;;;5056940;28;20029;-82
2021/04/30 04:18:13;;;;;;;22.55;17.35;;;;;;;;;;5056702;28;19905;-81
2021/04/30 04:20:40;;;;;;;23.33;17.25;;;;;;;;;;5056927;28;20052;-81
2021/04/30 04:23:06;;;;;;;26.38;17.40;;;;;;;;;;5057016;28;20036;-81
2021/04/30 04:25:32;;;;;;;25.55;16.70;;;;;;;;;;5055859;28;20098;-81
2021/04/30 04:28:26;;;;;;;25.60;17.05;;;;;;;;;;5057167;28;20032;-82
2021/04/30 04:30:52;;;;;;;25.98;17.20;;;;;;;;;;5055789;28;20029;-82
2021/04/30 04:33:19;;;;;;;24.83;17.25;;;;;;;;;;5057067;28;20417;-82
2021/04/30 04:35:45;;;;;;;25.42;16.63;;;;;;;;;;5056837;28;20052;-82
2021/04/30 04:38:11;;;;;;;27.08;18.25;;;;;;;;;;5055769;28;20434;-82
2021/04/30 04:40:37;;;;;;;27.08;17.85;;;;;;;;;;5056731;28;20029;-81
2021/04/30 04:43:03;;;;;;;25.60;17.90;;;;;;;;;;5056766;28;20066;-82
2021/04/30 04:45:29;;;;;;;27.67;18.33;;;;;;;;;;5056650;28;20025;-82
2021/04/30 04:47:56;;;;;;;23.73;16.45;;;;;;;;;;5056922;28;20048;-82
2021/04/30 04:50:22;;;;;;;27.70;18.17;;;;;;;;;;5055696;28;20025;-82
2021/04/30 04:52:48;;;;;;;27.27;16.80;;;;;;;;;;5055858;28;20033;-82
2021/04/30 04:55:16;;;;;;;30.20;17.88;;;;;;;;;;5055632;28;20021;-82
2021/04/30 04:57:43;;;;;;;26.00;18.38;;;;;;;;;;5056619;28;20054;-82
2021/04/30 05:00:09;;;;;;;28.30;18.58;;;;;;;;;;5056329;28;20028;-82
2021/04/30 05:02:35;;;;;;;28.35;18.95;;;;;;;;;;5056536;28;20354;-82
2021/04/30 05:05:02;;;;;;;29.00;18.95;;;;;;;;;;5056557;28;20036;-82
2021/04/30 05:07:28;;;;;;;32.92;20.00;;;;;;;;;;5056515;28;20044;-81
2021/04/30 05:09:55;;;;;;;65.93;41.00;;;;;;;;;;5056596;28;20021;-81
2021/04/30 05:12:21;;;;;;;46.28;30.42;;;;;;;;;;5056666;28;20052;-81
2021/04/30 05:14:47;;;;;;;31.42;23.45;;;;;;;;;;5056526;28;20029;-81
2021/04/30 05:17:13;;;;;;;31.10;23.40;;;;;;;;;;5056573;28;20036;-81
2021/04/30 05:19:39;;;;;;;31.55;24.42;;;;;;;;;;5056403;28;20021;-81
2021/04/30 05:22:08;;;;;;;34.50;24.55;;;;;;;;;;5056431;28;20032;-81
2021/04/30 05:24:35;;;;;;;33.47;24.02;;;;;;;;;;5056653;28;20071;-80
2021/04/30 05:27:03;;;;;;;33.28;23.55;;;;;;;;;;5057225;28;20041;-81
2021/04/30 05:29:29;;;;;;;32.42;23.70;;;;;;;;;;5059776;28;20403;-81
2021/04/30 05:31:55;;;;;;;32.72;22.35;;;;;;;;;;5059819;28;20465;-81
2021/04/30 05:34:21;;;;;;;37.42;25.08;;;;;;;;;;5059274;28;20461;-82
2021/04/30 05:36:47;;;;;;;29.73;22.48;;;;;;;;;;5060178;28;20100;-82
2021/04/30 05:39:13;;;;;;;30.25;22.00;;;;;;;;;;5058727;28;20057;-82
2021/04/30 05:41:39;;;;;;;37.70;23.20;;;;;;;;;;5059381;28;20403;-81
2021/04/30 05:44:05;;;;;;;33.70;23.50;;;;;;;;;;5059486;28;20403;-81
2021/04/30 05:46:31;;;;;;;33.88;24.27;;;;;;;;;;5059735;28;20035;-82
2021/04/30 05:48:58;;;;;;;33.17;22.50;;;;;;;;;;5058574;28;20047;-82
2021/04/30 05:51:24;;;;;;;40.72;27.77;;;;;;;;;;5058460;28;20029;-82
2021/04/30 05:53:50;;;;;;;36.05;26.23;;;;;;;;;;5059673;28;20108;-82
2021/04/30 05:56:16;;;;;;;37.03;25.55;;;;;;;;;;5058413;28;20028;-82
2021/04/30 05:58:42;;;;;;;33.70;24.77;;;;;;;;;;5059438;28;20036;-82
2021/04/30 06:01:08;;;;;;;34.50;25.98;;;;;;;;;;5059125;28;20400;-83
2021/04/30 06:03:34;;;;;;;41.58;27.98;;;;;;;;;;5059119;28;20411;-82
2021/04/30 06:06:00;;;;;;;38.60;25.80;;;;;;;;;;5058947;28;20052;-82
2021/04/30 06:08:26;;;;;;;33.35;25.00;;;;;;;;;;5059350;28;20067;-82
2021/04/30 06:10:52;;;;;;;36.75;25.70;;;;;;;;;;5059447;28;20319;-81
2021/04/30 06:13:18;;;;;;;37.28;25.23;;;;;;;;;;5059028;28;20057;-81
2021/04/30 06:15:44;;;;;;;40.63;24.60;;;;;;;;;;5059137;28;20021;-81
2021/04/30 06:18:10;;;;;;;38.65;26.15;;;;;;;;;;5059032;28;20063;-81
2021/04/30 06:20:36;;;;;;;38.22;25.52;;;;;;;;;;5058995;28;20064;-82
2021/04/30 06:23:02;;;;;;;37.63;24.55;;;;;;;;;;5059060;28;20082;-82
2021/04/30 06:25:28;;;;;;;38.72;26.05;;;;;;;;;;5058855;28;20021;-82
2021/04/30 06:27:54;;;;;;;39.67;26.60;;;;;;;;;;5058483;28;20025;-82
2021/04/30 06:30:21;;;;;;;39.30;27.33;;;;;;;;;;5058743;28;20021;-82
2021/04/30 06:32:47;;;;;;;38.85;27.27;;;;;;;;;;5059039;28;20033;-82
2021/04/30 06:35:13;;;;;;;33.45;22.75;;;;;;;;;;5058665;28;20033;-81
2021/04/30 06:37:39;;;;;;;38.35;22.77;;;;;;;;;;5058367;28;20025;-80
2021/04/30 06:40:07;;;;;;;32.10;20.10;;;;;;;;;;5058584;28;20029;-81
2021/04/30 06:42:33;;;;;;;31.63;20.90;;;;;;;;;;5058412;28;20104;-80
2021/04/30 06:44:59;;;;;;;35.67;21.98;;;;;;;;;;5058387;28;20025;-81
2021/04/30 06:47:25;;;;;;;40.47;24.30;;;;;;;;;;5057129;28;20021;-81
2021/04/30 06:49:51;;;;;;;35.05;22.88;;;;;;;;;;5058390;28;20177;-81
2021/04/30 06:52:17;;;;;;;31.73;22.33;;;;;;;;;;5058322;28;20075;-80
2021/04/30 06:54:43;;;;;;;32.55;18.63;;;;;;;;;;5058246;28;20039;-81
2021/04/30 06:57:10;;;;;;;25.30;15.13;;;;;;;;;;5058216;28;20071;-80
2021/04/30 06:59:36;;;;;;;21.92;13.70;;;;;;;;;;5057821;28;20033;-80
2021/04/30 07:02:03;;;;;;;20.13;11.88;;;;;;;;;;5057720;28;20411;-80
2021/04/30 07:04:30;;;;;;;18.30;12.18;;;;;;;;;;5056856;28;20323;-80
2021/04/30 07:06:56;;;;;;;24.88;12.80;;;;;;;;;;5056958;28;20020;-80
2021/04/30 07:09:22;;;;;;;19.20;11.07;;;;;;;;;;5058048;28;20048;-80
2021/04/30 07:11:48;;;;;;;19.77;12.10;;;;;;;;;;5058164;28;20021;-80
2021/04/30 07:14:14;;;;;;;18.65;11.05;;;;;;;;;;5057099;28;20037;-80
2021/04/30 07:16:40;;;;;;;15.30;9.68;;;;;;;;;;5056742;28;20415;-80
2021/04/30 07:19:06;;;;;;;15.50;7.80;;;;;;;;;;5058089;28;20323;-80
2021/04/30 07:21:32;;;;;;;21.23;13.30;;;;;;;;;;5056586;28;20401;-80
2021/04/30 07:23:58;;;;;;;24.92;16.25;;;;;;;;;;5057990;28;20316;-81
2021/04/30 07:26:24;;;;;;;18.55;9.10;;;;;;;;;;5057622;28;20315;-81
2021/04/30 07:28:51;;;;;;;14.32;8.40;;;;;;;;;;5057772;28;20124;-81
2021/04/30 07:31:17;;;;;;;28.27;16.45;;;;;;;;;;5056301;28;20036;-81
2021/04/30 07:33:46;;;;;;;11.98;5.80;;;;;;;;;;5056611;28;20025;-81
2021/04/30 07:36:12;;;;;;;12.77;6.75;;;;;;;;;;5057475;28;20067;-82
2021/04/30 07:38:38;;;;;;;13.35;5.75;;;;;;;;;;5057552;28;20315;-82
2021/04/30 07:41:04;;;;;;;12.27;7.38;;;;;;;;;;5057424;28;20025;-83
2021/04/30 07:43:36;;;;;;;12.68;5.10;;;;;;;;;;5057261;28;20033;-82
2021/04/30 07:46:02;;;;;;;11.18;5.45;;;;;;;;;;5057485;28;20037;-83
2021/04/30 07:48:29;;;;;;;7.57;3.08;;;;;;;;;;5057748;28;20037;-83
2021/04/30 07:50:55;;;;;;;13.05;6.10;;;;;;;;;;5056796;28;20307;-82
2021/04/30 07:53:21;;;;;;;21.85;12.07;;;;;;;;;;5057689;28;20028;-83
2021/04/30 08:07:24;;;;;;;10.48;5.15;;;;;;;;;;5135586;27;20389;-82
2021/04/30 08:09:53;;;;;;;7.45;3.08;;;;;;;;;;5135461;28;20028;-83
2021/04/30 08:12:38;;;;;;;10.93;4.70;;;;;;;;;;5135383;28;20019;-83
2021/04/30 08:15:05;;;;;;;19.23;12.13;;;;;;;;;;5135130;28;20058;-83
2021/04/30 08:17:31;;;;;;;27.90;15.73;;;;;;;;;;5135251;28;20019;-82
2021/04/30 08:20:00;;;;;;;12.45;3.45;;;;;;;;;;5110237;28;20421;-82
2021/04/30 08:22:26;;;;;;;20.63;12.35;;;;;;;;;;5114780;28;20028;-82
2021/04/30 08:24:53;;;;;;;13.57;4.32;;;;;;;;;;5096596;28;20016;-82
2021/04/30 08:27:20;;;;;;;12.38;7.35;;;;;;;;;;5114794;28;20024;-83
2021/04/30 08:29:46;;;;;;;9.80;3.78;;;;;;;;;;5114540;28;20511;-82
2021/04/30 08:32:12;;;;;;;11.68;3.00;;;;;;;;;;5113021;28;20477;-83
2021/04/30 08:34:39;;;;;;;21.67;12.23;;;;;;;;;;5127417;27;20150;-82
2021/04/30 08:37:05;;;;;;;14.02;5.00;;;;;;;;;;5124203;28;20043;-84
2021/04/30 08:39:31;;;;;;;9.45;3.50;;;;;;;;;;5096219;28;20032;-84
2021/04/30 08:41:58;;;;;;;9.30;4.05;;;;;;;;;;5096240;28;20051;-84
2021/04/30 08:44:24;;;;;;;20.42;11.93;;;;;;;;;;5114622;28;20317;-82
2021/04/30 08:46:50;;;;;;;12.68;5.10;;;;;;;;;;5114253;28;20056;-82
2021/04/30 08:49:16;;;;;;;12.40;3.70;;;;;;;;;;5095939;28;20077;-75
2021/04/30 08:51:42;;;;;;;8.18;2.63;;;;;;;;;;5114126;28;20051;-75
2021/04/30 08:54:10;;;;;;;5.75;2.40;;;;;;;;;;5113661;28;20051;-75
2021/04/30 08:56:48;;;;;;;5.07;2.58;;;;;;;;;;5113777;28;20413;-74
2021/04/30 08:59:15;;;;;;;13.90;6.57;;;;;;;;;;5113712;28;20043;-74
2021/04/30 09:01:41;;;;;;;6.78;3.40;;;;;;;;;;5113904;28;20020;-75
2021/04/30 09:04:07;;;;;;;11.30;5.47;;;;;;;;;;5113682;28;20020;-75
2021/04/30 09:06:38;;;;;;;7.75;3.08;;;;;;;;;;5110000;28;20074;-75
2021/04/30 09:09:14;;;;;;;9.00;3.08;;;;;;;;;;5100082;28;20035;-75
2021/04/30 09:11:40;;;;;;;9.00;3.47;;;;;;;;;;5098659;28;20352;-75
2021/04/30 09:14:26;;;;;;;10.23;3.35;;;;;;;;;;5098583;28;20028;-74
2021/04/30 09:17:09;;;;;;;8.13;3.20;;;;;;;;;;5097817;28;20040;-75
2021/04/30 09:19:35;;;;;;;10.90;3.58;;;;;;;;;;5098463;28;20047;-75
2021/04/30 09:22:03;;;;;;;9.13;4.38;;;;;;;;;;5099787;28;20047;-75
2021/04/30 09:24:29;;;;;;;9.73;3.67;;;;;;;;;;5099953;28;20096;-75
2021/04/30 09:26:56;;;;;;;10.07;3.53;;;;;;;;;;5099675;28;20044;-74
2021/04/30 09:29:22;;;;;;;9.07;4.50;;;;;;;;;;5099546;28;20404;-74
2021/04/30 09:31:49;;;;;;;12.82;6.75;;;;;;;;;;5099621;28;20024;-75
2021/04/30 09:34:26;;;;;;;12.18;3.40;;;;;;;;;;5099641;28;20028;-75
2021/04/30 09:37:02;;;;;;;8.80;3.17;;;;;;;;;;5081119;28;20040;-75
2021/04/30 09:39:28;;;;;;;7.95;3.92;;;;;;;;;;5099536;28;20315;-75
2021/04/30 09:42:11;;;;;;;22.00;17.15;;;;;;;;;;5081381;28;20466;-75
2021/04/30 09:44:38;;;;;;;9.52;3.85;;;;;;;;;;5099673;28;20024;-75
2021/04/30 09:47:13;;;;;;;10.02;4.15;;;;;;;;;;5099266;28;20428;-74
2021/04/30 09:49:39;;;;;;;9.63;3.97;;;;;;;;;;5099530;28;20024;-75
2021/04/30 09:52:08;;;;;;;8.05;3.30;;;;;;;;;;5099223;28;20023;-75
2021/04/30 09:54:34;;;;;;;8.25;2.38;;;;;;;;;;5099123;28;20333;-75
2021/04/30 09:57:17;;;;;;;9.02;3.83;;;;;;;;;;5099057;28;20027;-75
2021/04/30 10:00:04;;;;;;;11.20;3.28;;;;;;;;;;5099092;28;20016;-75
2021/04/30 10:02:34;;;;;;;4.60;2.53;;;;;;;;;;5017123;28;20114;-74
2021/04/30 10:05:18;;;;;;;6.97;3.00;;;;;;;;;;5016822;28;20097;-74
2021/04/30 10:07:44;;;;;;;11.43;5.15;;;;;;;;;;5017010;28;20103;-75
2021/04/30 10:10:10;;;;;;;10.48;4.28;;;;;;;;;;5017100;28;20412;-75
2021/04/30 10:12:39;;;;;;;8.48;2.97;;;;;;;;;;5023709;28;20324;-74
2021/04/30 10:15:07;;;;;;;6.20;3.22;;;;;;;;;;5036644;28;20124;-74
2021/04/30 10:17:33;;;;;;;6.90;2.90;;;;;;;;;;5036375;28;20057;-75
2021/04/30 10:20:00;;;;;;;9.48;4.82;;;;;;;;;;5035470;28;20038;-75
2021/04/30 10:22:27;;;;;;;7.75;4.18;;;;;;;;;;5018307;28;20438;-75
2021/04/30 10:24:55;;;;;;;8.13;3.80;;;;;;;;;;5036502;28;20030;-75
2021/04/30 10:27:30;;;;;;;9.43;3.45;;;;;;;;;;5036300;28;20030;-75
2021/04/30 10:30:15;;;;;;;7.22;3.13;;;;;;;;;;5036175;28;20048;-75
2021/04/30 10:32:45;;;;;;;4.22;2.20;;;;;;;;;;5036394;28;20311;-74
2021/04/30 10:35:12;;;;;;;7.38;2.88;;;;;;;;;;5036055;28;20363;-76
2021/04/30 10:37:40;;;;;;;10.60;4.82;;;;;;;;;;5036397;28;20033;-75
2021/04/30 10:40:07;;;;;;;7.38;3.00;;;;;;;;;;5078773;28;20039;-74
2021/04/30 10:42:44;;;;;;;5.03;2.95;;;;;;;;;;5118609;28;20030;-74
2021/04/30 10:45:12;;;;;;;8.00;2.30;;;;;;;;;;5118522;28;20482;-74
2021/04/30 10:47:39;;;;;;;6.25;3.30;;;;;;;;;;5118441;28;20027;-74
2021/04/30 10:50:13;;;;;;;8.32;3.05;;;;;;;;;;5118635;28;20034;-75
2021/04/30 10:52:40;;;;;;;7.13;2.63;;;;;;;;;;5118498;28;20028;-74
2021/04/30 10:55:07;;;;;;;7.63;2.88;;;;;;;;;;5118463;28;20020;-74
2021/04/30 10:57:52;;;;;;;5.72;2.33;;;;;;;;;;5118364;28;20047;-74
2021/04/30 11:00:19;;;;;;;8.13;2.75;;;;;;;;;;5079748;28;20078;-74
2021/04/30 11:02:45;;;;;;;8.73;3.05;;;;;;;;;;5077483;28;20025;-74
2021/04/30 11:05:16;;;;;;;8.38;2.83;;;;;;;;;;5087441;28;20040;-74
2021/04/30 11:07:47;;;;;;;8.40;2.58;;;;;;;;;;5091062;28;20472;-74
2021/04/30 11:10:23;;;;;;;3.80;1.90;;;;;;;;;;5077186;28;20417;-74
2021/04/30 11:12:59;;;;;;;10.10;4.28;;;;;;;;;;5077517;28;20043;-75
2021/04/30 11:15:25;;;;;;;9.65;3.75;;;;;;;;;;5059587;28;20032;-75
2021/04/30 11:18:04;;;;;;;6.53;3.03;;;;;;;;;;5077328;28;20391;-74
2021/04/30 11:20:35;;;;;;;9.40;2.97;;;;;;;;;;5059521;28;20031;-74
2021/04/30 11:23:14;;;;;;;6.00;2.90;;;;;;;;;;5077428;28;20025;-75
2021/04/30 11:25:58;;;;;;;6.57;2.25;;;;;;;;;;5077097;28;20028;-75
2021/04/30 11:28:25;;;;;;;7.32;2.53;;;;;;;;;;5059519;28;20029;-75
2021/04/30 11:31:09;;;;;;;4.60;2.42;;;;;;;;;;5076976;28;20059;-74
2021/04/30 11:33:36;;;;;;;7.05;3.25;;;;;;;;;;5077277;28;20066;-75
2021/04/30 11:36:03;;;;;;;7.13;2.97;;;;;;;;;;5077055;28;20071;-75
2021/04/30 11:38:35;;;;;;;7.88;4.43;;;;;;;;;;5077093;28;20024;-75
2021/04/30 11:41:01;;;;;;;10.70;5.95;;;;;;;;;;5077225;28;20027;-75
2021/04/30 11:43:27;;;;;;;6.47;3.15;;;;;;;;;;5077075;28;20044;-75
2021/04/30 11:45:55;;;;;;;8.35;4.70;;;;;;;;;;5076993;28;20070;-74
2021/04/30 11:48:25;;;;;;;19.60;3.97;;;;;;;;;;5077011;28;20031;-75
2021/04/30 11:51:00;;;;;;;9.68;3.95;;;;;;;;;;5076966;28;20028;-75
2021/04/30 11:53:26;;;;;;;6.40;3.05;;;;;;;;;;5076926;28;20035;-75
2021/04/30 11:55:53;;;;;;;3.22;1.70;;;;;;;;;;5058679;28;20039;-75
2021/04/30 11:58:19;;;;;;;8.70;3.17;;;;;;;;;;5076885;28;20024;-81
2021/04/30 12:00:50;;;;;;;9.63;3.60;;;;;;;;;;5076825;28;20326;-81
2021/04/30 12:03:16;;;;;;;8.60;2.60;;;;;;;;;;5059179;28;20032;-81
2021/04/30 12:05:43;;;;;;;9.18;3.58;;;;;;;;;;5076786;28;20048;-81
2021/04/30 12:08:10;;;;;;;3.50;1.70;;;;;;;;;;5076958;28;20321;-81
2021/04/30 12:10:36;;;;;;;6.35;2.83;;;;;;;;;;5059040;28;20029;-81
2021/04/30 12:13:06;;;;;;;7.22;3.35;;;;;;;;;;5076802;28;20046;-81
2021/04/30 12:15:34;;;;;;;4.28;1.67;;;;;;;;;;5076969;28;20032;-81
2021/04/30 12:18:02;;;;;;;4.65;1.70;;;;;;;;;;5058822;28;20048;-81
2021/04/30 12:20:29;;;;;;;5.60;2.50;;;;;;;;;;5076935;28;20021;-81
2021/04/30 12:22:56;;;;;;;5.10;1.70;;;;;;;;;;5059055;28;20021;-81
2021/04/30 12:25:24;;;;;;;9.57;2.67;;;;;;;;;;5076750;28;20024;-81
2021/04/30 12:27:50;;;;;;;5.22;1.55;;;;;;;;;;5076693;28;20024;-80
2021/04/30 12:30:31;;;;;;;5.40;1.75;;;;;;;;;;5058866;28;20039;-81
2021/04/30 12:32:57;;;;;;;6.40;1.90;;;;;;;;;;5077647;28;20063;-80
2021/04/30 12:35:24;;;;;;;6.05;2.10;;;;;;;;;;5077752;28;20044;-80
2021/04/30 12:37:51;;;;;;;6.03;1.85;;;;;;;;;;5096040;28;20081;-81
2021/04/30 12:40:23;;;;;;;5.90;2.53;;;;;;;;;;5078367;28;20031;-81
2021/04/30 12:42:50;;;;;;;4.47;2.88;;;;;;;;;;5081001;28;20020;-81
2021/04/30 12:45:16;;;;;;;4.60;1.83;;;;;;;;;;5100705;28;20024;-80
2021/04/30 12:47:43;;;;;;;2.25;1.77;;;;;;;;;;5100644;28;20417;-81
2021/04/30 12:50:10;;;;;;;4.57;1.58;;;;;;;;;;5082584;28;20028;-80
2021/04/30 12:52:37;;;;;;;3.35;1.85;;;;;;;;;;5100225;28;20027;-81
2021/04/30 12:55:22;;;;;;;5.95;1.60;;;;;;;;;;5100287;28;20028;-80
2021/04/30 12:58:08;;;;;;;5.70;1.50;;;;;;;;;;5100297;28;20032;-81
2021/04/30 13:00:53;;;;;;;6.15;2.22;;;;;;;;;;5018377;28;20076;-81
2021/04/30 13:03:19;;;;;;;6.13;2.05;;;;;;;;;;5018475;28;20122;-81
2021/04/30 13:05:46;;;;;;;5.05;1.60;;;;;;;;;;5001771;28;20340;-81
2021/04/30 13:08:12;;;;;;;5.80;1.80;;;;;;;;;;5018060;28;20049;-84
2021/04/30 13:10:38;;;;;;;5.43;1.70;;;;;;;;;;5018377;28;20029;-84
2021/04/30 13:13:05;;;;;;;3.65;1.45;;;;;;;;;;5002049;28;20041;-84
2021/04/30 13:15:32;;;;;;;2.17;1.45;;;;;;;;;;5018346;28;20146;-83
2021/04/30 13:17:58;;;;;;;5.30;2.10;;;;;;;;;;5018590;28;20038;-83
2021/04/30 13:20:28;;;;;;;3.05;1.83;;;;;;;;;;5018439;28;20054;-83
2021/04/30 13:23:05;;;;;;;7.35;4.30;;;;;;;;;;5018414;28;20359;-83
2021/04/30 13:25:32;;;;;;;18.15;12.00;;;;;;;;;;5018133;28;20034;-85
2021/04/30 13:27:58;;;;;;;10.52;6.82;;;;;;;;;;5001784;28;20528;-84
2021/04/30 13:30:37;;;;;;;4.38;2.53;;;;;;;;;;5018301;28;20037;-82
2021/04/30 13:33:20;;;;;;;3.30;1.63;;;;;;;;;;5018363;28;20034;-85
2021/04/30 13:35:47;;;;;;;33.88;23.85;;;;;;;;;;5018213;28;20125;-84
2021/04/30 13:38:33;;;;;;;9.02;2.90;;;;;;;;;;5078696;28;20406;-83
2021/04/30 13:41:10;;;;;;;10.43;7.10;;;;;;;;;;5099351;28;20027;-82
2021/04/30 13:43:36;;;;;;;13.70;11.45;;;;;;;;;;5099860;28;20012;-82
2021/04/30 13:46:11;;;;;;;4.55;1.83;;;;;;;;;;5081597;28;20031;-82
2021/04/30 13:48:39;;;;;;;5.82;1.85;;;;;;;;;;5081464;28;20063;-82
2021/04/30 13:51:05;;;;;;;26.15;17.58;;;;;;;;;;5099405;28;20036;-82
2021/04/30 13:53:31;;;;;;;11.00;6.03;;;;;;;;;;5099484;28;20039;-82
2021/04/30 13:55:58;;;;;;;12.68;9.25;;;;;;;;;;5099073;28;20036;-82
2021/04/30 13:58:25;;;;;;;10.85;6.90;;;;;;;;;;5099066;28;20066;-82
2021/04/30 14:00:51;;;;;;;5.63;1.10;;;;;;;;;;5080970;28;20031;-83
2021/04/30 14:03:17;;;;;;;4.90;1.05;;;;;;;;;;5099181;28;20019;-83
2021/04/30 14:05:43;;;;;;;3.08;1.17;;;;;;;;;;5081169;28;20079;-82
2021/04/30 14:08:09;;;;;;;4.03;1.00;;;;;;;;;;5099229;28;20024;-82
2021/04/30 14:10:35;;;;;;;5.30;1.38;;;;;;;;;;5099068;28;20058;-82
2021/04/30 14:13:01;;;;;;;3.55;1.20;;;;;;;;;;5099000;28;20028;-83
2021/04/30 14:15:27;;;;;;;2.03;1.20;;;;;;;;;;5099160;28;20024;-82
2021/04/30 14:17:53;;;;;;;7.15;3.60;;;;;;;;;;5098896;28;20072;-83
2021/04/30 14:20:19;;;;;;;19.95;12.75;;;;;;;;;;5099037;28;20024;-82
2021/04/30 14:22:45;;;;;;;4.38;1.80;;;;;;;;;;5080846;28;20115;-83
2021/04/30 14:25:12;;;;;;;6.18;2.47;;;;;;;;;;5098797;28;20027;-84
2021/04/30 14:27:38;;;;;;;6.28;1.45;;;;;;;;;;5098646;28;20428;-83
2021/04/30 14:30:05;;;;;;;6.03;1.88;;;;;;;;;;5080417;28;20039;-83
2021/04/30 14:32:31;;;;;;;3.88;1.58;;;;;;;;;;5098681;28;20032;-82
2021/04/30 14:34:57;;;;;;;7.55;1.83;;;;;;;;;;5080657;28;20024;-82
2021/04/30 14:37:23;;;;;;;6.60;2.35;;;;;;;;;;5098378;28;20035;-83
2021/04/30 14:39:49;;;;;;;5.25;1.65;;;;;;;;;;5098576;28;20024;-83
2021/04/30 14:42:35;;;;;;;4.15;1.25;;;;;;;;;;5081104;28;20363;-83
2021/04/30 14:45:01;;;;;;;3.83;1.42;;;;;;;;;;5080416;28;20024;-83